createdAt,value
2018-11-11T00:02:11.243Z,5.30
2018-11-11T00:04:39.518Z,5.15
2018-11-11T00:07:07.777Z,5.60
2018-11-11T00:09:36.017Z,5.25
2018-11-11T00:12:04.643Z,6.17
2018-11-11T00:14:32.935Z,4.53
2018-11-11T00:17:01.177Z,5.12
2018-11-11T00:19:29.426Z,6.65
2018-11-11T00:21:57.696Z,4.05
2018-11-11T00:24:25.969Z,5.95
2018-11-11T00:26:54.242Z,4.30
2018-11-11T00:29:22.547Z,4.45
2018-11-11T00:31:50.791Z,4.12
2018-11-11T00:34:19.068Z,5.33
2018-11-11T00:36:47.336Z,4.17
2018-11-11T00:39:15.605Z,4.60
2018-11-11T00:41:43.861Z,4.20
2018-11-11T00:44:12.113Z,4.15
2018-11-11T00:46:40.362Z,4.53
2018-11-11T00:49:09.573Z,3.85
2018-11-11T00:51:37.854Z,4.92
2018-11-11T00:54:13.257Z,4.75
2018-11-11T00:56:41.515Z,3.87
2018-11-11T00:59:09.774Z,3.42
2018-11-11T01:01:38.050Z,3.50
2018-11-11T01:04:12.831Z,3.22
2018-11-11T01:06:41.123Z,3.50
2018-11-11T01:09:15.084Z,4.05
2018-11-11T01:11:43.366Z,3.55
2018-11-11T01:14:11.603Z,3.65
2018-11-11T01:16:39.844Z,3.58
2018-11-11T01:19:08.844Z,3.30
2018-11-11T01:21:37.116Z,3.87
2018-11-11T01:24:05.459Z,2.87
2018-11-11T01:26:34.017Z,3.17
2018-11-11T01:29:02.293Z,4.00
2018-11-11T01:31:30.539Z,3.65
2018-11-11T01:33:58.786Z,2.87
2018-11-11T01:36:27.046Z,2.80
2018-11-11T01:38:55.282Z,2.65
2018-11-11T01:41:23.514Z,3.12
2018-11-11T01:43:51.764Z,2.75
2018-11-11T01:46:21.049Z,2.83
2018-11-11T01:48:49.323Z,2.80
2018-11-11T01:51:17.591Z,2.70
2018-11-11T01:53:45.903Z,2.75
2018-11-11T01:56:14.150Z,3.12
2018-11-11T01:58:42.403Z,2.90
2018-11-11T02:01:10.695Z,3.27
2018-11-11T02:03:38.960Z,3.17
2018-11-11T02:06:07.216Z,2.47
2018-11-11T02:08:35.474Z,3.40
2018-11-11T02:11:03.764Z,2.60
2018-11-11T02:13:32.002Z,3.00
2018-11-11T02:16:00.256Z,2.75
2018-11-11T02:18:28.502Z,3.02
2018-11-11T02:20:56.773Z,3.22
2018-11-11T02:25:59.781Z,2.85
2018-11-11T02:28:28.035Z,3.25
2018-11-11T02:30:56.583Z,3.12
2018-11-11T02:33:24.880Z,2.70
2018-11-11T02:35:53.128Z,2.60
2018-11-11T02:38:21.397Z,3.25
2018-11-11T02:40:49.648Z,3.02
2018-11-11T02:43:17.881Z,3.00
2018-11-11T02:45:46.134Z,3.22
2018-11-11T02:48:14.373Z,2.70
2018-11-11T02:50:42.604Z,2.85
2018-11-11T02:53:10.882Z,3.37
2018-11-11T02:55:39.122Z,2.50
2018-11-11T02:58:07.398Z,2.92
2018-11-11T03:00:35.661Z,3.17
2018-11-11T03:03:03.943Z,2.80
2018-11-11T03:05:32.224Z,2.67
2018-11-11T03:08:00.477Z,2.52
2018-11-11T03:10:28.735Z,2.80
2018-11-11T03:12:56.978Z,2.92
2018-11-11T03:15:25.228Z,2.83
2018-11-11T03:17:53.495Z,2.90
2018-11-11T03:20:21.749Z,2.40
2018-11-11T03:22:49.987Z,2.20
2018-11-11T03:25:18.699Z,2.80
2018-11-11T03:27:46.951Z,2.42
2018-11-11T03:30:16.839Z,2.65
2018-11-11T03:32:45.367Z,2.62
2018-11-11T03:35:14.254Z,2.92
2018-11-11T03:37:43.248Z,2.83
2018-11-11T03:40:13.978Z,2.10
2018-11-11T03:42:43.052Z,3.40
2018-11-11T03:45:14.636Z,2.55
2018-11-11T03:47:43.730Z,2.58
2018-11-11T03:50:12.554Z,2.70
2018-11-11T03:52:41.315Z,2.87
2018-11-11T03:55:09.869Z,2.52
2018-11-11T03:57:38.219Z,2.47
2018-11-11T04:00:13.146Z,2.12
2018-11-11T04:02:41.397Z,2.92
2018-11-11T04:05:11.061Z,2.52
2018-11-11T04:07:39.753Z,2.42
2018-11-11T04:10:10.546Z,1.80
2018-11-11T04:12:39.183Z,2.65
2018-11-11T04:15:09.107Z,3.17
2018-11-11T04:17:38.232Z,3.08
2018-11-11T04:20:08.409Z,2.70
2018-11-11T04:22:36.683Z,3.17
2018-11-11T04:25:04.946Z,2.37
2018-11-11T04:27:33.189Z,3.15
2018-11-11T04:30:01.460Z,3.02
2018-11-11T04:32:29.713Z,2.90
2018-11-11T04:34:57.993Z,2.77
2018-11-11T04:37:26.256Z,2.50
2018-11-11T04:39:54.513Z,2.47
2018-11-11T04:42:22.780Z,2.20
2018-11-11T04:44:51.080Z,2.30
2018-11-11T04:47:19.349Z,2.85
2018-11-11T04:49:47.603Z,2.77
2018-11-11T04:52:15.884Z,2.98
2018-11-11T04:54:44.153Z,2.90
2018-11-11T04:57:12.397Z,2.25
2018-11-11T04:59:40.632Z,2.27
2018-11-11T05:02:08.890Z,2.35
2018-11-11T05:04:37.172Z,2.80
2018-11-11T05:07:06.073Z,2.70
2018-11-11T05:09:34.335Z,2.17
2018-11-11T05:12:02.609Z,2.47
2018-11-11T05:14:31.833Z,2.25
2018-11-11T05:17:00.059Z,1.80
2018-11-11T05:19:28.306Z,2.98
2018-11-11T05:21:56.621Z,2.65
2018-11-11T05:24:24.848Z,3.42
2018-11-11T05:26:53.111Z,3.10
2018-11-11T05:29:21.623Z,3.05
2018-11-11T05:31:49.885Z,2.83
2018-11-11T05:34:18.159Z,3.17
2018-11-11T05:36:46.402Z,3.45
2018-11-11T05:39:21.145Z,2.70
2018-11-11T05:41:49.393Z,3.00
2018-11-11T05:44:17.748Z,2.70
2018-11-11T05:46:45.974Z,2.75
2018-11-11T05:49:14.236Z,2.60
2018-11-11T05:51:42.483Z,2.42
2018-11-11T05:54:14.664Z,2.30
2018-11-11T05:56:42.906Z,1.80
2018-11-11T05:59:11.155Z,2.42
2018-11-11T06:01:39.411Z,2.40
2018-11-11T06:04:07.658Z,2.47
2018-11-11T06:06:35.918Z,2.33
2018-11-11T06:09:12.249Z,2.27
2018-11-11T06:11:40.613Z,1.90
2018-11-11T06:14:09.113Z,2.47
2018-11-11T06:16:37.382Z,2.85
2018-11-11T06:19:05.918Z,1.92
2018-11-11T06:21:34.173Z,2.80
2018-11-11T06:24:02.435Z,2.25
2018-11-11T06:26:30.703Z,2.42
2018-11-11T06:28:58.963Z,2.40
2018-11-11T06:31:27.225Z,2.17
2018-11-11T06:33:55.577Z,2.02
2018-11-11T06:36:23.820Z,2.10
2018-11-11T06:38:52.101Z,2.70
2018-11-11T06:41:20.387Z,2.75
2018-11-11T06:43:48.637Z,3.10
2018-11-11T06:46:16.897Z,2.33
2018-11-11T06:48:45.140Z,3.58
2018-11-11T06:51:13.399Z,2.35
2018-11-11T06:53:41.658Z,2.27
2018-11-11T06:56:09.914Z,2.02
2018-11-11T06:58:38.191Z,2.72
2018-11-11T07:01:06.432Z,1.92
2018-11-11T07:03:43.487Z,2.35
2018-11-11T07:06:11.882Z,1.77
2018-11-11T07:08:40.129Z,2.00
2018-11-11T07:11:08.384Z,1.77
2018-11-11T07:13:36.647Z,1.85
2018-11-11T07:16:05.276Z,1.60
2018-11-11T07:18:33.520Z,1.47
2018-11-11T07:21:01.851Z,1.70
2018-11-11T07:23:30.147Z,1.77
2018-11-11T07:25:58.400Z,1.40
2018-11-11T07:28:27.124Z,1.15
2018-11-11T07:30:55.385Z,1.42
2018-11-11T07:33:23.694Z,1.75
2018-11-11T07:35:51.995Z,1.40
2018-11-11T07:38:20.215Z,1.70
2018-11-11T07:40:48.454Z,1.80
2018-11-11T07:43:16.758Z,1.95
2018-11-11T07:45:45.051Z,2.30
2018-11-11T07:48:13.380Z,2.35
2018-11-11T07:50:42.021Z,2.30
2018-11-11T07:53:10.296Z,2.15
2018-11-11T07:55:38.588Z,2.08
2018-11-11T07:58:06.884Z,2.45
2018-11-11T08:00:35.132Z,1.80
2018-11-11T08:03:03.749Z,1.95
2018-11-11T08:05:32.037Z,1.77
2018-11-11T08:08:00.294Z,2.05
2018-11-11T08:10:39.798Z,2.05
2018-11-11T08:13:08.074Z,2.77
2018-11-11T08:15:36.316Z,2.20
2018-11-11T08:18:06.957Z,1.80
2018-11-11T08:20:35.201Z,2.20
2018-11-11T08:23:03.519Z,2.17
2018-11-11T08:25:31.829Z,2.10
2018-11-11T08:28:00.139Z,2.00
2018-11-11T08:30:28.407Z,1.62
2018-11-11T08:32:56.690Z,2.50
2018-11-11T08:35:24.959Z,1.80
2018-11-11T08:37:53.246Z,1.90
2018-11-11T08:40:21.603Z,1.80
2018-11-11T08:42:49.870Z,1.95
2018-11-11T08:45:18.634Z,1.77
2018-11-11T08:47:46.902Z,1.57
2018-11-11T08:50:15.417Z,1.50
2018-11-11T08:52:43.917Z,2.20
2018-11-11T08:55:12.205Z,2.42
2018-11-11T08:57:40.463Z,1.85
2018-11-11T09:00:14.621Z,1.98
2018-11-11T09:02:43.050Z,2.30
2018-11-11T09:05:11.315Z,2.15
2018-11-11T09:07:39.591Z,1.50
2018-11-11T09:10:09.269Z,1.80
2018-11-11T09:12:38.107Z,2.35
2018-11-11T09:15:08.545Z,2.08
2018-11-11T09:17:37.055Z,1.90
2018-11-11T09:20:06.473Z,1.72
2018-11-11T09:22:34.762Z,1.67
2018-11-11T09:25:03.419Z,2.15
2018-11-11T09:27:31.794Z,2.30
2018-11-11T09:30:00.124Z,2.22
2018-11-11T09:32:28.409Z,2.08
2018-11-11T09:34:56.697Z,1.87
2018-11-11T09:37:24.954Z,2.12
2018-11-11T09:39:53.211Z,1.80
2018-11-11T09:42:21.560Z,2.60
2018-11-11T09:44:49.820Z,1.98
2018-11-11T09:47:18.259Z,1.92
2018-11-11T09:49:46.591Z,1.98
2018-11-11T09:52:14.861Z,1.50
2018-11-11T09:54:43.133Z,2.40
2018-11-11T09:57:11.428Z,1.70
2018-11-11T09:59:39.786Z,1.92
2018-11-11T10:02:08.007Z,1.60
2018-11-11T10:04:42.210Z,1.67
2018-11-11T10:07:22.780Z,2.37
2018-11-11T10:09:56.543Z,1.67
2018-11-11T10:12:44.770Z,1.55
2018-11-11T10:15:33.066Z,2.35
2018-11-11T10:18:11.553Z,1.50
2018-11-11T10:20:44.795Z,1.75
2018-11-11T10:23:18.455Z,1.52
2018-11-11T10:25:51.113Z,1.32
2018-11-11T10:28:23.703Z,1.60
2018-11-11T10:30:57.803Z,1.57
2018-11-11T10:33:46.000Z,2.02
2018-11-11T10:36:25.555Z,1.60
2018-11-11T10:39:29.094Z,1.85
2018-11-11T10:42:02.827Z,1.40
2018-11-11T10:44:36.124Z,1.52
2018-11-11T10:47:06.700Z,1.60
2018-11-11T10:49:42.556Z,1.50
2018-11-11T10:52:10.880Z,1.80
2018-11-11T10:54:39.136Z,1.70
2018-11-11T10:57:07.426Z,1.60
2018-11-11T10:59:36.541Z,1.47
2018-11-11T11:02:10.117Z,2.00
2018-11-11T11:04:43.843Z,2.08
2018-11-11T11:07:12.976Z,1.42
2018-11-11T11:09:41.262Z,1.72
2018-11-11T11:12:10.064Z,1.80
2018-11-11T11:14:38.317Z,2.20
2018-11-11T11:17:06.643Z,2.08
2018-11-11T11:19:34.911Z,1.70
2018-11-11T11:22:03.177Z,1.90
2018-11-11T11:24:31.609Z,1.42
2018-11-11T11:26:59.874Z,1.80
2018-11-11T11:29:28.194Z,2.35
2018-11-11T11:31:56.485Z,2.27
2018-11-11T11:34:24.716Z,1.82
2018-11-11T11:36:53.014Z,1.92
2018-11-11T11:39:22.315Z,2.00
2018-11-11T11:41:50.617Z,2.98
2018-11-11T11:44:18.904Z,2.35
2018-11-11T11:46:47.184Z,2.45
2018-11-11T11:49:15.467Z,2.92
2018-11-11T11:51:43.742Z,2.30
2018-11-11T11:54:13.195Z,1.82
2018-11-11T11:56:41.588Z,2.05
2018-11-11T11:59:09.902Z,1.80
2018-11-11T12:01:38.256Z,2.35
2018-11-11T12:04:06.587Z,1.70
2018-11-11T12:06:34.855Z,3.65
2018-11-11T12:09:06.248Z,2.47
2018-11-11T12:11:34.686Z,2.08
2018-11-11T12:14:02.963Z,2.50
2018-11-11T12:16:31.325Z,1.98
2018-11-11T12:18:59.525Z,1.60
2018-11-11T12:21:27.835Z,2.20
2018-11-11T12:23:56.119Z,2.00
2018-11-11T12:26:24.437Z,2.20
2018-11-11T12:28:52.721Z,2.47
2018-11-11T12:31:21.023Z,2.42
2018-11-11T12:33:49.293Z,2.85
2018-11-11T12:36:17.668Z,2.02
2018-11-11T12:38:45.922Z,2.08
2018-11-11T12:41:14.220Z,2.55
2018-11-11T12:43:42.588Z,3.08
2018-11-11T12:46:10.872Z,3.10
2018-11-11T12:48:39.241Z,2.00
2018-11-11T12:51:07.531Z,2.05
2018-11-11T12:53:35.845Z,2.50
2018-11-11T12:56:04.144Z,1.90
2018-11-11T12:58:32.406Z,2.87
2018-11-11T13:01:00.690Z,2.27
2018-11-11T13:03:28.945Z,3.05
2018-11-11T13:05:57.280Z,2.45
2018-11-11T13:08:25.954Z,2.40
2018-11-11T13:10:54.248Z,2.30
2018-11-11T13:13:22.521Z,1.75
2018-11-11T13:15:50.804Z,2.00
2018-11-11T13:18:20.172Z,2.20
2018-11-11T13:20:48.461Z,2.17
2018-11-11T13:23:16.775Z,2.75
2018-11-11T13:25:45.080Z,1.90
2018-11-11T13:28:13.357Z,1.72
2018-11-11T13:30:41.641Z,2.08
2018-11-11T13:33:10.744Z,2.75
2018-11-11T13:35:39.000Z,1.77
2018-11-11T13:38:07.419Z,2.00
2018-11-11T13:40:35.624Z,2.58
2018-11-11T13:43:03.900Z,2.47
2018-11-11T13:45:32.175Z,2.50
2018-11-11T13:48:00.483Z,2.80
2018-11-11T13:50:28.788Z,2.62
2018-11-11T13:52:57.100Z,2.20
2018-11-11T13:55:25.394Z,1.80
2018-11-11T13:57:53.675Z,2.17
2018-11-11T14:00:24.269Z,2.02
2018-11-11T14:02:52.549Z,2.00
2018-11-11T14:05:20.914Z,2.15
2018-11-11T14:07:49.163Z,1.60
2018-11-11T14:10:17.676Z,1.25
2018-11-11T14:12:45.960Z,1.82
2018-11-11T14:15:19.816Z,1.77
2018-11-11T14:17:48.660Z,1.82
2018-11-11T14:20:18.179Z,2.22
2018-11-11T14:22:47.323Z,1.95
2018-11-11T14:25:19.368Z,1.65
2018-11-11T14:27:47.544Z,2.17
2018-11-11T14:30:20.749Z,2.05
2018-11-11T14:32:49.781Z,1.27
2018-11-11T14:35:18.071Z,1.77
2018-11-11T14:37:46.805Z,1.72
2018-11-11T14:40:17.484Z,1.85
2018-11-11T14:42:46.118Z,1.55
2018-11-11T14:45:15.270Z,1.40
2018-11-11T14:47:44.658Z,1.35
2018-11-11T14:50:13.925Z,1.42
2018-11-11T14:52:43.021Z,1.30
2018-11-11T14:55:14.800Z,1.10
2018-11-11T14:57:43.198Z,1.20
2018-11-11T15:00:15.239Z,1.30
2018-11-11T15:02:44.022Z,1.25
2018-11-11T15:05:13.605Z,1.50
2018-11-11T15:07:42.803Z,1.62
2018-11-11T15:10:12.461Z,1.35
2018-11-11T15:12:40.991Z,1.52
2018-11-11T15:15:12.805Z,1.07
2018-11-11T15:17:41.185Z,1.52
2018-11-11T15:20:10.752Z,1.02
2018-11-11T15:22:38.838Z,1.10
2018-11-11T15:25:09.831Z,1.12
2018-11-11T15:27:38.674Z,1.07
2018-11-11T15:30:09.855Z,1.30
2018-11-11T15:32:38.115Z,0.95
2018-11-11T15:35:06.599Z,1.15
2018-11-11T15:37:35.105Z,1.75
2018-11-11T15:40:03.934Z,2.25
2018-11-11T15:42:32.254Z,1.40
2018-11-11T15:45:00.515Z,1.20
2018-11-11T15:47:28.820Z,1.12
2018-11-11T15:49:57.919Z,1.45
2018-11-11T15:52:26.689Z,1.40
2018-11-11T15:54:55.188Z,1.60
2018-11-11T15:57:23.444Z,1.35
2018-11-11T15:59:51.729Z,1.50
2018-11-11T16:02:19.996Z,1.62
2018-11-11T16:04:48.286Z,1.50
2018-11-11T16:07:17.041Z,1.17
2018-11-11T16:09:45.299Z,1.80
2018-11-11T16:12:13.586Z,1.62
2018-11-11T16:14:41.846Z,2.22
2018-11-11T16:17:10.140Z,1.45
2018-11-11T16:19:38.432Z,1.40
2018-11-11T16:22:06.671Z,1.60
2018-11-11T16:24:34.941Z,1.47
2018-11-11T16:27:05.907Z,3.15
2018-11-11T16:29:34.212Z,2.62
2018-11-11T16:32:02.793Z,2.30
2018-11-11T16:34:31.060Z,2.00
2018-11-11T16:36:59.622Z,1.80
2018-11-11T16:39:27.917Z,1.85
2018-11-11T16:41:56.262Z,2.90
2018-11-11T16:44:24.507Z,2.47
2018-11-11T16:46:52.763Z,2.22
2018-11-11T16:49:21.166Z,1.80
2018-11-11T16:51:49.489Z,2.33
2018-11-11T16:54:17.838Z,4.00
2018-11-11T16:56:46.117Z,2.15
2018-11-11T16:59:14.395Z,2.10
2018-11-11T17:01:42.665Z,1.52
2018-11-11T17:04:10.910Z,1.75
2018-11-11T17:06:39.465Z,1.87
2018-11-11T17:09:14.299Z,1.42
2018-11-11T17:11:42.594Z,3.08
2018-11-11T17:14:11.330Z,1.62
2018-11-11T17:16:39.646Z,1.20
2018-11-11T17:19:08.408Z,2.27
2018-11-11T17:21:36.791Z,1.45
2018-11-11T17:24:05.076Z,2.42
2018-11-11T17:26:33.347Z,1.40
2018-11-11T17:29:01.682Z,1.27
2018-11-11T17:31:29.906Z,3.12
2018-11-11T17:33:58.168Z,3.40
2018-11-11T17:36:26.431Z,2.17
2018-11-11T17:38:55.145Z,1.40
2018-11-11T17:41:23.353Z,1.17
2018-11-11T17:43:51.643Z,1.70
2018-11-11T17:46:20.915Z,1.70
2018-11-11T17:48:49.175Z,1.22
2018-11-11T17:51:17.465Z,1.65
2018-11-11T17:53:45.714Z,1.30
2018-11-11T17:56:13.967Z,1.40
2018-11-11T17:58:42.200Z,1.42
2018-11-11T18:01:10.510Z,1.57
2018-11-11T18:03:38.879Z,2.60
2018-11-11T18:06:07.170Z,1.32
2018-11-11T18:08:35.606Z,1.70
2018-11-11T18:11:03.886Z,1.40
2018-11-11T18:13:32.156Z,1.67
2018-11-11T18:16:00.490Z,1.20
2018-11-11T18:18:29.778Z,1.42
2018-11-11T18:20:58.034Z,1.40
2018-11-11T18:23:26.351Z,1.90
2018-11-11T18:25:54.609Z,2.42
2018-11-11T18:28:22.984Z,1.47
2018-11-11T18:30:51.178Z,1.60
2018-11-11T18:33:19.653Z,1.30
2018-11-11T18:35:47.925Z,1.55
2018-11-11T18:38:16.353Z,1.82
2018-11-11T18:40:44.695Z,1.75
2018-11-11T18:43:14.047Z,1.75
2018-11-11T18:45:42.560Z,1.42
2018-11-11T18:48:10.851Z,1.75
2018-11-11T18:50:39.096Z,1.37
2018-11-11T18:53:07.422Z,1.50
2018-11-11T18:55:35.942Z,1.72
2018-11-11T18:58:04.277Z,1.52
2018-11-11T19:00:33.521Z,1.65
2018-11-11T19:03:01.798Z,1.77
2018-11-11T19:05:31.365Z,2.30
2018-11-11T19:08:00.847Z,2.80
2018-11-11T19:10:30.552Z,2.90
2018-11-11T19:13:01.466Z,2.60
2018-11-11T19:15:30.733Z,4.12
2018-11-11T19:17:59.034Z,5.05
2018-11-11T19:20:27.792Z,4.20
2018-11-11T19:22:56.129Z,3.75
2018-11-11T19:25:25.994Z,2.72
2018-11-11T19:27:56.021Z,3.05
2018-11-11T19:30:25.751Z,3.10
2018-11-11T19:32:54.322Z,2.85
2018-11-11T19:35:22.630Z,2.98
2018-11-11T19:37:52.216Z,3.45
2018-11-11T19:40:21.731Z,2.92
2018-11-11T19:42:50.689Z,3.55
2018-11-11T19:45:20.485Z,3.60
2018-11-11T19:47:48.964Z,3.98
2018-11-11T19:50:18.729Z,4.03
2018-11-11T19:52:48.408Z,3.60
2018-11-11T19:55:17.884Z,4.33
2018-11-11T19:57:46.134Z,4.60
2018-11-11T20:00:18.066Z,3.40
2018-11-11T20:02:47.446Z,4.00
2018-11-11T20:05:16.455Z,4.00
2018-11-11T20:07:45.946Z,4.28
2018-11-11T20:10:15.334Z,4.53
2018-11-11T20:12:43.874Z,4.20
2018-11-11T20:15:17.879Z,4.62
2018-11-11T20:17:46.729Z,4.20
2018-11-11T20:20:17.734Z,3.77
2018-11-11T20:22:46.200Z,4.00
2018-11-11T20:25:15.640Z,3.72
2018-11-11T20:27:44.347Z,4.08
2018-11-11T20:30:16.949Z,3.80
2018-11-11T20:32:45.430Z,4.28
2018-11-11T20:35:15.509Z,4.03
2018-11-11T20:37:43.817Z,3.67
2018-11-11T20:40:15.646Z,4.10
2018-11-11T20:42:44.425Z,3.80
2018-11-11T20:45:15.915Z,3.83
2018-11-11T20:47:44.966Z,4.25
2018-11-11T20:50:17.573Z,4.53
2018-11-11T20:52:46.908Z,4.03
2018-11-11T20:55:15.840Z,5.03
2018-11-11T20:57:44.180Z,4.50
2018-11-11T21:00:16.600Z,4.20
2018-11-11T21:02:44.896Z,4.37
2018-11-11T21:05:14.490Z,4.87
2018-11-11T21:07:42.814Z,4.80
2018-11-11T21:10:14.217Z,4.25
2018-11-11T21:12:42.865Z,4.47
2018-11-11T21:15:13.208Z,4.83
2018-11-11T21:17:41.587Z,4.85
2018-11-11T21:20:11.538Z,5.28
2018-11-11T21:22:39.968Z,4.97
2018-11-11T21:25:08.642Z,4.65
2018-11-11T21:27:37.882Z,4.28
2018-11-11T21:30:10.601Z,5.03
2018-11-11T21:32:39.228Z,5.15
2018-11-11T21:35:07.706Z,4.00
2018-11-11T21:37:35.991Z,4.20
2018-11-11T21:40:04.689Z,4.00
2018-11-11T21:42:32.979Z,4.62
2018-11-11T21:45:01.267Z,4.35
2018-11-11T21:47:29.528Z,4.67
2018-11-11T21:49:58.618Z,4.15
2018-11-11T21:52:26.910Z,5.12
2018-11-11T21:54:55.195Z,4.58
2018-11-11T21:57:23.581Z,5.12
2018-11-11T21:59:51.829Z,5.47
2018-11-11T22:02:20.177Z,4.85
2018-11-11T22:04:48.407Z,4.60
2018-11-11T22:07:16.666Z,5.75
2018-11-11T22:09:45.066Z,5.10
2018-11-11T22:12:13.313Z,5.33
2018-11-11T22:14:41.605Z,5.08
2018-11-11T22:17:09.914Z,5.15
2018-11-11T22:19:38.144Z,5.80
2018-11-11T22:22:06.898Z,4.70
2018-11-11T22:24:35.120Z,5.12
2018-11-11T22:27:08.731Z,5.85
2018-11-11T22:29:37.003Z,5.45
2018-11-11T22:32:05.746Z,5.05
2018-11-11T22:34:34.209Z,5.30
2018-11-11T22:37:02.476Z,4.83
2018-11-11T22:39:30.979Z,4.70
2018-11-11T22:41:59.264Z,5.12
2018-11-11T22:44:27.523Z,5.65
2018-11-11T22:46:55.806Z,4.87
2018-11-11T22:49:24.087Z,5.72
2018-11-11T22:51:52.336Z,5.15
2018-11-11T22:54:20.630Z,5.37
2018-11-11T22:56:48.941Z,5.62
2018-11-11T22:59:17.217Z,5.55
2018-11-11T23:01:45.467Z,6.12
2018-11-11T23:04:13.880Z,7.35
2018-11-11T23:06:42.139Z,6.22
2018-11-11T23:09:14.675Z,6.00
2018-11-11T23:11:43.043Z,5.83
2018-11-11T23:14:11.296Z,6.15
2018-11-11T23:16:39.572Z,5.60
2018-11-11T23:19:07.860Z,5.92
2018-11-11T23:21:36.111Z,6.87
2018-11-11T23:24:05.105Z,6.35
2018-11-11T23:26:33.368Z,6.45
2018-11-11T23:29:01.627Z,6.30
2018-11-11T23:31:30.349Z,7.75
2018-11-11T23:34:05.679Z,7.00
2018-11-11T23:36:34.129Z,6.62
2018-11-11T23:39:02.356Z,6.65
2018-11-11T23:41:30.607Z,6.58
2018-11-11T23:43:58.900Z,7.78
2018-11-11T23:46:27.178Z,7.00
2018-11-11T23:48:55.422Z,7.17
2018-11-11T23:51:23.719Z,6.78
2018-11-11T23:53:51.991Z,7.47
2018-11-11T23:56:20.238Z,7.42
2018-11-11T23:58:48.951Z,7.03
